Time;durP1;ratioP1;P1;durP2;ratioP2;P2;SDS_P1;SDS_P2;PMS_P1;PMS_P2;Temp;Humidity;BMP_temperature;BMP_pressure;BME280_temperature;BME280_humidity;BME280_pressure;Samples;Min_cycle;Max_cycle;Signal;HPM_P1;HPM_P2
2023/07/14 00:02:18;;;;;;;5.60;2.92;;;21.60;99.90;;;;;;4170208;28;20367;-58
2023/07/14 00:04:40;;;;;;;12.25;4.32;;;21.50;99.90;;;;;;4162717;28;20064;-58
2023/07/14 00:07:03;;;;;;;3.90;2.53;;;21.50;99.90;;;;;;4159745;28;20096;-58
2023/07/14 00:09:25;;;;;;;3.58;2.65;;;21.40;99.90;;;;;;4166890;28;20080;-59
2023/07/14 00:11:46;;;;;;;;;;;21.50;99.90;;;;;;4164815;28;20401;-58
2023/07/14 00:14:06;;;;;;;6.70;2.97;;;21.50;99.90;;;;;;4167832;28;20151;-59
2023/07/14 00:16:29;;;;;;;3.30;2.65;;;21.50;99.90;;;;;;4170003;28;20052;-59
2023/07/14 00:18:50;;;;;;;4.00;3.42;;;21.60;99.90;;;;;;4171069;28;20052;-59
2023/07/14 00:21:22;;;;;;;10.75;3.30;;;21.60;99.90;;;;;;4170475;28;20041;-58
2023/07/14 00:23:42;;;;;;;7.55;3.28;;;21.50;99.90;;;;;;4169248;28;20288;-58
2023/07/14 00:26:02;;;;;;;11.10;4.25;;;21.50;99.90;;;;;;4169366;28;20077;-58
2023/07/14 00:28:22;;;;;;;4.60;3.20;;;21.40;99.90;;;;;;4168441;28;20049;-58
2023/07/14 00:30:43;;;;;;;5.45;2.72;;;21.30;99.90;;;;;;4167796;28;20053;-59
2023/07/14 00:33:15;;;;;;;4.65;3.22;;;21.40;99.90;;;;;;4168145;28;20053;-59
2023/07/14 00:35:35;;;;;;;5.25;3.33;;;21.40;99.90;;;;;;4167460;28;20048;-58
2023/07/14 00:37:57;;;;;;;4.43;3.40;;;21.30;99.90;;;;;;4167386;28;20053;-59
2023/07/14 00:40:20;;;;;;;6.63;3.33;;;21.20;99.90;;;;;;4166681;28;20041;-58
2023/07/14 00:42:40;;;;;;;5.63;3.10;;;21.00;99.90;;;;;;4167157;28;20053;-59
2023/07/14 00:45:00;;;;;;;6.93;4.25;;;20.90;99.90;;;;;;4168752;28;20065;-58
2023/07/14 00:47:28;;;;;;;9.40;3.65;;;20.80;99.90;;;;;;4170264;28;20056;-58
2023/07/14 00:49:50;;;;;;;6.68;3.88;;;20.70;99.90;;;;;;4170897;28;20068;-58
2023/07/14 00:52:16;;;;;;;9.32;3.63;;;20.60;99.90;;;;;;4169196;28;20048;-58
2023/07/14 00:54:42;;;;;;;8.18;2.97;;;20.70;99.90;;;;;;4169417;28;20116;-59
2023/07/14 00:57:02;;;;;;;3.47;3.15;;;20.60;99.90;;;;;;4168702;28;20394;-58
2023/07/14 00:59:33;;;;;;;5.50;4.50;;;20.70;99.90;;;;;;4169045;28;20084;-58
2023/07/14 01:02:11;;;;;;;7.45;4.20;;;20.80;99.90;;;;;;4170981;28;20064;-59
2023/07/14 01:04:31;;;;;;;6.15;3.33;;;20.70;99.90;;;;;;4171857;28;20049;-58
2023/07/14 01:06:52;;;;;;;6.32;3.78;;;20.40;99.90;;;;;;4172108;28;20044;-58
2023/07/14 01:09:13;;;;;;;4.63;4.15;;;20.50;99.90;;;;;;4165552;28;20084;-58
2023/07/14 01:11:45;;;;;;;6.90;3.90;;;20.60;99.90;;;;;;4168656;28;20057;-58
2023/07/14 01:14:09;;;;;;;6.45;3.70;;;20.70;99.90;;;;;;4167423;28;20044;-58
2023/07/14 01:16:30;;;;;;;8.00;4.40;;;20.70;99.90;;;;;;4167234;28;20099;-58
2023/07/14 01:18:50;;;;;;;7.78;4.28;;;20.70;99.90;;;;;;4167679;28;20048;-58
2023/07/14 01:21:11;;;;;;;6.78;4.03;;;20.50;99.90;;;;;;4168185;28;20390;-59
2023/07/14 01:23:32;;;;;;;5.53;3.83;;;20.50;99.90;;;;;;4153282;28;20081;-59
2023/07/14 01:26:13;;;;;;;5.22;3.58;;;20.60;99.90;;;;;;4168471;28;20049;-58
2023/07/14 01:28:33;;;;;;;5.18;3.78;;;20.40;99.90;;;;;;4168541;28;20056;-59
2023/07/14 01:30:53;;;;;;;5.38;3.70;;;20.50;99.90;;;;;;4169978;28;20053;-59
2023/07/14 01:33:17;;;;;;;4.63;3.33;;;20.60;99.90;;;;;;4169423;28;20100;-58
2023/07/14 01:35:39;;;;;;;4.63;4.25;;;20.70;99.90;;;;;;4166264;28;20061;-58
2023/07/14 01:37:59;;;;;;;;;;;20.50;99.90;;;;;;4166823;28;20089;-59
2023/07/14 01:40:21;;;;;;;6.95;3.97;;;20.60;99.90;;;;;;4168437;28;20148;-59
2023/07/14 01:42:43;;;;;;;;;;;20.70;99.90;;;;;;4166535;28;20063;-59
2023/07/14 01:45:04;;;;;;;6.55;3.65;;;20.80;99.90;;;;;;4163982;28;19932;-59
2023/07/14 01:47:25;;;;;;;10.38;4.43;;;20.70;99.90;;;;;;4165622;28;20053;-59
2023/07/14 01:49:49;;;;;;;6.63;3.58;;;20.60;99.90;;;;;;4168257;28;20159;-59
2023/07/14 01:52:14;;;;;;;9.20;4.43;;;20.60;99.90;;;;;;4168054;28;20056;-58
2023/07/14 01:54:51;;;;;;;6.28;3.83;;;20.70;99.90;;;;;;4168731;28;20049;-58
2023/07/14 01:57:14;;;;;;;4.30;3.78;;;;;;;;;;4169077;28;20044;-58
2023/07/14 01:59:36;;;;;;;8.50;4.80;;;;;;;;;;4169387;28;20052;-58
2023/07/14 02:02:02;;;;;;;6.60;4.13;;;;;;;;;;4168446;28;20100;-59
2023/07/14 02:04:25;;;;;;;6.93;4.57;;;;;;;;;;4169727;28;20049;-58
2023/07/14 02:06:45;;;;;;;8.43;3.85;;;;;;;;;;4169822;28;20232;-59
2023/07/14 02:09:06;;;;;;;6.30;4.18;;;;;;;;;;4170570;28;20159;-59
2023/07/14 02:11:27;;;;;;;5.20;3.88;;;;;;;;;;4166181;28;20041;-58
2023/07/14 02:13:48;;;;;;;12.32;4.00;;;;;;;;;;4166296;28;20142;-59
2023/07/14 02:16:14;;;;;;;4.22;3.05;;;;;;;;;;4166699;28;20411;-58
2023/07/14 02:18:35;;;;;;;9.48;4.03;;;;;;;;;;4167058;28;20068;-58
2023/07/14 02:20:56;;;;;;;8.98;4.15;;;;;;;;;;4167369;28;20067;-58
2023/07/14 02:23:22;;;;;;;7.72;4.80;;;;;;;;;;4166803;28;20052;-58
2023/07/14 02:25:44;;;;;;;7.15;4.45;;;;;;;;;;4165904;28;20060;-58
2023/07/14 02:28:05;;;;;;;4.63;3.43;;;;;;;;;;4167176;28;20100;-58
2023/07/14 02:30:33;;;;;;;9.82;4.57;;;;;;;;;;4168296;28;20045;-58
2023/07/14 02:33:01;;;;;;;5.00;3.92;;;;;;;;;;4169351;28;20105;-58
2023/07/14 02:35:30;;;;;;;5.43;3.47;;;;;;;;;;4168396;28;20363;-59
2023/07/14 02:38:05;;;;;;;6.80;4.05;;;;;;;;;;4169436;28;20087;-58
2023/07/14 02:40:25;;;;;;;5.07;4.57;;;;;;;;;;4166458;28;20039;-58
2023/07/14 02:42:45;;;;;;;5.93;4.10;;;;;;;;;;4166356;28;20084;-58
2023/07/14 02:45:06;;;;;;;10.43;4.63;;;;;;;;;;4164183;28;20399;-58
2023/07/14 02:47:27;;;;;;;7.40;4.15;;;;;;;;;;4165146;28;20100;-58
2023/07/14 02:49:48;;;;;;;9.55;4.40;;;;;;;;;;4163801;28;20080;-58
2023/07/14 02:52:08;;;;;;;4.97;4.00;;;;;;;;;;4166634;28;20096;-58
2023/07/14 02:54:28;;;;;;;9.82;5.53;;;;;;;;;;4166037;28;20047;-58
2023/07/14 02:56:48;;;;;;;6.80;4.50;;;;;;;;;;4166084;28;20092;-58
2023/07/14 02:59:10;;;;;;;9.30;5.15;;;;;;;;;;4168211;28;20048;-58
2023/07/14 03:01:32;;;;;;;5.60;4.50;;;;;;;;;;4166941;28;20041;-58
2023/07/14 03:03:53;;;;;;;5.47;4.88;;;;;;;;;;4166431;28;20065;-59
2023/07/14 03:06:14;;;;;;;7.18;5.13;;;;;;;;;;4169462;28;20084;-59
2023/07/14 03:08:35;;;;;;;11.93;5.00;;;;;;;;;;4167871;28;20045;-58
2023/07/14 03:10:58;;;;;;;6.10;5.60;;;20.70;99.90;;;;;;4167810;28;20068;-59
2023/07/14 03:13:18;;;;;;;5.38;4.70;;;20.00;99.90;;;;;;4165898;28;20049;-58
2023/07/14 03:15:38;;;;;;;9.95;5.75;;;20.00;99.90;;;;;;4166728;28;20045;-58
2023/07/14 03:17:59;;;;;;;7.22;4.95;;;20.00;99.90;;;;;;4165204;28;20056;-58
2023/07/14 03:20:19;;;;;;;5.38;4.88;;;20.00;99.90;;;;;;4166168;28;20076;-58
2023/07/14 03:22:39;;;;;;;6.43;5.00;;;20.00;99.90;;;;;;4166517;28;20429;-58
2023/07/14 03:25:02;;;;;;;;;;;20.00;99.90;;;;;;4166616;28;20048;-58
2023/07/14 03:27:22;;;;;;;7.95;5.22;;;20.00;99.90;;;;;;4166327;28;19980;-58
2023/07/14 03:29:41;;;;;;;8.07;4.38;;;20.10;99.90;;;;;;4162761;28;20041;-58
2023/07/14 03:32:02;;;;;;;8.20;4.38;;;20.10;99.90;;;;;;4165753;28;20048;-58
2023/07/14 03:34:22;;;;;;;8.00;4.82;;;20.10;99.90;;;;;;4167108;28;20371;-58
2023/07/14 03:36:42;;;;;;;10.32;3.75;;;20.20;99.90;;;;;;4167945;28;20048;-58
2023/07/14 03:39:24;;;;;;;7.88;4.72;;;20.20;99.90;;;;;;4167994;28;20068;-58
2023/07/14 03:41:44;;;;;;;7.80;4.78;;;20.30;99.90;;;;;;4168148;28;20398;-58
2023/07/14 03:44:03;;;;;;;8.75;5.25;;;20.10;99.90;;;;;;4167779;28;20061;-58
2023/07/14 03:46:23;;;;;;;5.63;3.20;;;20.10;99.90;;;;;;4165398;28;20056;-59
2023/07/14 03:48:43;;;;;;;6.03;4.60;;;20.20;99.90;;;;;;4165474;28;20105;-58
2023/07/14 03:51:03;;;;;;;5.22;4.03;;;20.30;99.90;;;;;;4169555;28;20056;-58
2023/07/14 03:53:24;;;;;;;8.05;4.03;;;20.30;99.90;;;;;;4169147;28;20061;-59
2023/07/14 03:55:47;;;;;;;5.20;4.65;;;20.30;99.90;;;;;;4170515;28;20106;-58
2023/07/14 03:58:06;;;;;;;5.95;3.45;;;20.30;99.90;;;;;;4164807;28;20104;-58
2023/07/14 04:00:27;;;;;;;5.47;4.13;;;20.30;99.90;;;;;;4164713;28;20092;-58
2023/07/14 04:02:47;;;;;;;8.05;5.13;;;20.30;99.90;;;;;;4163997;28;20379;-58
2023/07/14 04:05:09;;;;;;;11.05;4.53;;;20.30;99.90;;;;;;4165280;28;20048;-58
2023/07/14 04:07:29;;;;;;;6.97;4.03;;;20.30;99.90;;;;;;4165420;28;20084;-58
2023/07/14 04:09:49;;;;;;;4.47;4.18;;;20.10;99.90;;;;;;4168768;28;20356;-58
2023/07/14 04:12:09;;;;;;;5.30;4.38;;;20.00;99.90;;;;;;4165326;28;20052;-58
2023/07/14 04:14:29;;;;;;;9.10;4.53;;;19.90;99.90;;;;;;4167264;28;20068;-58
2023/07/14 04:16:50;;;;;;;9.27;4.30;;;19.80;99.90;;;;;;4167448;28;20075;-58
2023/07/14 04:19:10;;;;;;;4.28;4.07;;;19.80;99.90;;;;;;4166134;28;20152;-58
2023/07/14 04:21:31;;;;;;;7.18;4.50;;;19.80;99.90;;;;;;4165561;28;20080;-58
2023/07/14 04:23:55;;;;;;;7.80;4.15;;;19.70;99.90;;;;;;4165219;28;20057;-58
2023/07/14 04:26:14;;;;;;;4.95;4.20;;;19.70;99.90;;;;;;4166020;28;20040;-58
2023/07/14 04:28:36;;;;;;;8.07;3.90;;;19.70;99.90;;;;;;4165384;28;20105;-58
2023/07/14 04:30:58;;;;;;;4.65;4.30;;;19.70;99.90;;;;;;4165185;28;20080;-58
2023/07/14 04:33:17;;;;;;;6.32;4.22;;;19.70;99.90;;;;;;4161152;28;20053;-58
2023/07/14 04:35:38;;;;;;;5.40;4.82;;;19.70;99.90;;;;;;4166209;28;20375;-58
2023/07/14 04:37:58;;;;;;;7.05;4.57;;;19.60;99.90;;;;;;4165058;28;20061;-58
2023/07/14 04:40:19;;;;;;;4.10;3.85;;;19.60;99.90;;;;;;4167128;28;20044;-58
2023/07/14 04:42:47;;;;;;;5.32;4.15;;;19.60;99.90;;;;;;4168178;28;20044;-59
2023/07/14 04:45:08;;;;;;;4.90;4.38;;;19.60;99.90;;;;;;4167734;28;20087;-58
2023/07/14 04:47:27;;;;;;;5.72;5.25;;;19.60;99.90;;;;;;4152712;28;20080;-58
2023/07/14 04:49:47;;;;;;;8.20;4.25;;;19.60;99.90;;;;;;4167439;28;20245;-58
2023/07/14 04:52:08;;;;;;;6.30;4.78;;;19.60;99.90;;;;;;4165891;28;20087;-58
2023/07/14 04:54:28;;;;;;;6.50;3.72;;;19.60;99.90;;;;;;4168525;28;20048;-58
2023/07/14 04:56:48;;;;;;;3.95;3.63;;;19.60;99.90;;;;;;4168432;28;20060;-58
2023/07/14 04:59:08;;;;;;;5.68;3.20;;;19.60;99.90;;;;;;4172245;28;20229;-58
2023/07/14 05:01:28;;;;;;;6.28;4.22;;;19.60;99.90;;;;;;4168008;28;20367;-59
2023/07/14 05:03:49;;;;;;;8.07;4.95;;;19.60;99.90;;;;;;4165032;28;20088;-58
2023/07/14 05:06:12;;;;;;;8.20;4.25;;;19.60;99.90;;;;;;4162821;28;20071;-58
2023/07/14 05:08:32;;;;;;;6.18;4.57;;;19.60;99.90;;;;;;4162545;28;20053;-58
2023/07/14 05:10:52;;;;;;;3.50;3.20;;;19.60;99.90;;;;;;4169615;28;20043;-58
2023/07/14 05:13:13;;;;;;;4.28;3.80;;;19.70;99.90;;;;;;4167136;28;20394;-58
2023/07/14 05:15:33;;;;;;;9.50;4.15;;;19.80;99.90;;;;;;4170276;28;20056;-58
2023/07/14 05:17:54;;;;;;;5.10;4.32;;;19.80;99.90;;;;;;4172403;28;20227;-58
2023/07/14 05:20:16;;;;;;;4.95;4.00;;;19.80;99.90;;;;;;4170866;28;20053;-58
2023/07/14 05:22:39;;;;;;;6.10;4.22;;;19.80;99.90;;;;;;4169990;28;20044;-58
2023/07/14 05:24:59;;;;;;;5.95;4.93;;;19.80;99.90;;;;;;4168837;28;20111;-58
2023/07/14 05:27:20;;;;;;;4.82;3.85;;;19.80;99.90;;;;;;4167562;28;20080;-58
2023/07/14 05:29:40;;;;;;;7.40;3.65;;;19.80;99.90;;;;;;4168562;28;20077;-58
2023/07/14 05:32:00;;;;;;;4.78;3.53;;;19.90;99.90;;;;;;4167267;28;20053;-58
2023/07/14 05:34:20;;;;;;;4.20;3.88;;;19.90;99.90;;;;;;4167612;28;20060;-58
2023/07/14 05:36:40;;;;;;;4.30;3.85;;;19.90;99.90;;;;;;4163809;28;20267;-58
2023/07/14 05:38:59;;;;;;;6.70;3.65;;;20.00;99.90;;;;;;4163061;28;20045;-58
2023/07/14 05:41:20;;;;;;;11.07;4.40;;;20.10;99.90;;;;;;4167034;28;20237;-58
2023/07/14 05:43:40;;;;;;;4.65;2.88;;;20.10;99.90;;;;;;4168388;28;20060;-58
2023/07/14 05:46:00;;;;;;;4.72;3.75;;;20.20;99.90;;;;;;4170294;28;20052;-58
2023/07/14 05:48:20;;;;;;;7.07;3.85;;;20.30;99.90;;;;;;4168710;28;20060;-59
2023/07/14 05:50:40;;;;;;;6.72;3.88;;;20.40;99.90;;;;;;4168491;28;20044;-58
2023/07/14 05:53:01;;;;;;;4.47;4.07;;;20.50;99.90;;;;;;4169067;28;20045;-58
2023/07/14 05:55:20;;;;;;;6.40;4.13;;;20.60;99.90;;;;;;4169198;28;20239;-59
2023/07/14 05:57:40;;;;;;;7.95;4.82;;;20.90;99.90;;;;;;4169848;28;20101;-58
2023/07/14 06:00:00;;;;;;;6.28;4.40;;;21.00;99.90;;;;;;4170363;28;20045;-58
2023/07/14 06:02:21;;;;;;;8.27;3.95;;;21.20;99.90;;;;;;4172044;28;20076;-58
2023/07/14 06:04:45;;;;;;;5.78;3.55;;;21.10;99.90;;;;;;4170229;28;20073;-58
2023/07/14 06:07:06;;;;;;;8.45;5.30;;;21.10;99.90;;;;;;4163613;28;20089;-58
2023/07/14 06:09:32;;;;;;;6.60;4.22;;;21.20;99.90;;;;;;4162034;28;20364;-58
2023/07/14 06:11:52;;;;;;;9.10;3.90;;;21.20;99.90;;;;;;4161387;28;20053;-58
2023/07/14 06:14:12;;;;;;;14.40;4.10;;;21.30;99.90;;;;;;4160298;28;20088;-58
2023/07/14 06:16:32;;;;;;;7.47;4.28;;;21.40;99.90;;;;;;4166283;28;20352;-58
2023/07/14 06:18:53;;;;;;;8.30;4.97;;;21.50;99.90;;;;;;4166209;28;20131;-58
2023/07/14 06:21:12;;;;;;;6.75;4.05;;;21.60;99.90;;;;;;4166092;28;20103;-59
2023/07/14 06:23:32;;;;;;;5.95;2.80;;;21.90;99.90;;;;;;4167222;28;20068;-58
2023/07/14 06:25:54;;;;;;;7.43;3.47;;;22.30;99.90;;;;;;4168836;28;20321;-58
2023/07/14 06:28:14;;;;;;;7.95;3.22;;;22.30;99.90;;;;;;4169044;28;20075;-58
2023/07/14 06:30:35;;;;;;;8.20;2.65;;;22.60;99.90;;;;;;4168581;28;20056;-58
2023/07/14 06:32:55;;;;;;;5.57;2.70;;;22.50;99.90;;;;;;4166140;28;20064;-58
2023/07/14 06:35:15;;;;;;;6.38;3.70;;;22.50;99.90;;;;;;4166495;28;20245;-58
2023/07/14 06:37:35;;;;;;;4.70;3.40;;;22.60;99.90;;;;;;4166250;28;20048;-58
2023/07/14 06:39:55;;;;;;;7.45;3.05;;;22.70;99.90;;;;;;4164592;28;20039;-58
2023/07/14 06:42:16;;;;;;;6.40;2.75;;;22.80;99.90;;;;;;4162507;28;20088;-58
2023/07/14 06:44:37;;;;;;;6.50;2.92;;;22.90;99.90;;;;;;4163200;28;20053;-58
2023/07/14 06:46:57;;;;;;;8.23;2.97;;;23.00;99.90;;;;;;4167750;28;20040;-58
2023/07/14 06:49:17;;;;;;;3.72;2.45;;;23.00;99.90;;;;;;4168495;28;20056;-58
2023/07/14 06:51:42;;;;;;;7.43;3.03;;;23.30;99.90;;;;;;4167402;28;20095;-58
2023/07/14 06:54:02;;;;;;;4.30;2.47;;;23.40;99.90;;;;;;4167556;28;20075;-58
2023/07/14 06:56:23;;;;;;;2.92;2.00;;;23.60;99.90;;;;;;4167465;28;20241;-58
2023/07/14 06:58:43;;;;;;;10.73;2.75;;;23.70;99.90;;;;;;4168110;28;20056;-58
2023/07/14 07:01:03;;;;;;;7.25;2.47;;;23.90;99.90;;;;;;4168069;28;20037;-58
2023/07/14 07:03:23;;;;;;;5.75;2.08;;;24.40;99.90;;;;;;4169171;28;20044;-58
2023/07/14 07:05:44;;;;;;;9.88;2.55;;;24.90;99.90;;;;;;4169837;28;20117;-59
2023/07/14 07:08:09;;;;;;;7.03;2.22;;;25.30;99.90;;;;;;4169154;28;20057;-59
2023/07/14 07:10:28;;;;;;;7.82;2.15;;;25.30;99.90;;;;;;4168111;28;20492;-59
2023/07/14 07:12:48;;;;;;;4.55;1.95;;;25.60;99.90;;;;;;4165147;28;20084;-59
2023/07/14 07:15:09;;;;;;;4.25;2.17;;;25.70;99.90;;;;;;4162724;28;20037;-59
2023/07/14 07:17:29;;;;;;;7.28;2.00;;;25.70;99.90;;;;;;4165958;28;20045;-59
2023/07/14 07:19:49;;;;;;;6.32;1.83;;;25.60;99.90;;;;;;4165317;28;20056;-58
2023/07/14 07:22:09;;;;;;;8.02;1.35;;;25.60;99.90;;;;;;4161766;28;20053;-59
2023/07/14 07:24:29;;;;;;;5.65;1.30;;;25.50;99.90;;;;;;4165080;28;20048;-59
2023/07/14 07:26:49;;;;;;;8.23;1.98;;;25.50;99.90;;;;;;4165954;28;20060;-59
2023/07/14 07:29:09;;;;;;;6.75;1.70;;;25.70;99.90;;;;;;4166219;28;20049;-58
2023/07/14 07:31:29;;;;;;;6.38;1.60;;;26.30;99.90;;;;;;4167007;28;20048;-59
2023/07/14 07:33:49;;;;;;;5.10;1.45;;;26.40;99.90;;;;;;4167996;28;20276;-59
2023/07/14 07:36:16;;;;;;;4.55;1.80;;;26.40;99.90;;;;;;4167074;28;20263;-59
2023/07/14 07:38:37;;;;;;;3.03;1.95;;;26.50;99.90;;;;;;4164492;28;20301;-58
2023/07/14 07:40:59;;;;;;;6.00;1.85;;;26.50;99.90;;;;;;4164774;28;20040;-58
2023/07/14 07:43:22;;;;;;;3.33;1.55;;;26.60;99.90;;;;;;4164709;28;20390;-59
2023/07/14 07:45:47;;;;;;;7.55;2.28;;;26.60;99.90;;;;;;4162874;28;20207;-59
2023/07/14 07:48:07;;;;;;;11.45;2.15;;;26.80;99.90;;;;;;4161984;28;20088;-59
2023/07/14 07:50:28;;;;;;;6.70;2.15;;;27.00;99.90;;;;;;4165744;28;20084;-59
2023/07/14 07:52:48;;;;;;;9.90;2.42;;;26.80;99.90;;;;;;4166477;28;20080;-59
2023/07/14 07:55:08;;;;;;;9.15;2.13;;;27.10;99.90;;;;;;4165852;28;20049;-59
2023/07/14 07:57:28;;;;;;;5.38;2.10;;;27.20;99.90;;;;;;4166933;28;20053;-59
2023/07/14 07:59:49;;;;;;;7.35;2.45;;;27.40;99.90;;;;;;4166572;28;20069;-59
2023/07/14 08:02:12;;;;;;;6.57;1.75;;;27.80;99.90;;;;;;4166312;28;20088;-59
2023/07/14 08:04:32;;;;;;;6.30;1.42;;;27.80;99.90;;;;;;4167726;28;20056;-59
2023/07/14 08:06:53;;;;;;;8.63;2.03;;;27.80;99.90;;;;;;4167632;28;20044;-58
2023/07/14 08:09:13;;;;;;;3.28;1.95;;;28.20;99.90;;;;;;4168246;28;20287;-58
2023/07/14 08:11:33;;;;;;;10.00;2.20;;;28.10;99.90;;;;;;4169155;28;20064;-58
2023/07/14 08:13:53;;;;;;;9.20;1.58;;;28.00;99.90;;;;;;4168969;28;20076;-59
2023/07/14 08:16:13;;;;;;;5.90;1.50;;;27.90;99.90;;;;;;4165626;28;20100;-59
2023/07/14 08:18:34;;;;;;;9.13;1.95;;;28.40;99.90;;;;;;4164431;28;20048;-59
2023/07/14 08:20:54;;;;;;;6.35;2.13;;;28.60;99.90;;;;;;4165182;28;20363;-59
2023/07/14 08:23:15;;;;;;;7.82;1.45;;;28.70;99.90;;;;;;4164945;28;20091;-58
2023/07/14 08:25:34;;;;;;;4.55;1.42;;;28.90;99.90;;;;;;4161994;28;20041;-59
2023/07/14 08:27:54;;;;;;;11.43;1.52;;;28.70;99.90;;;;;;4161704;28;20156;-59
2023/07/14 08:30:15;;;;;;;4.93;1.25;;;28.70;99.90;;;;;;4165439;28;20060;-59
2023/07/14 08:32:34;;;;;;;4.78;1.20;;;29.00;99.90;;;;;;4165699;28;20078;-59
2023/07/14 08:34:54;;;;;;;6.38;1.27;;;29.30;99.90;;;;;;4169493;28;20111;-59
2023/07/14 08:37:14;;;;;;;4.95;1.60;;;29.80;99.90;;;;;;4170179;28;20048;-59
2023/07/14 08:39:34;;;;;;;6.57;1.30;;;30.20;99.90;;;;;;4171471;28;20232;-59
2023/07/14 08:42:01;;;;;;;3.47;1.52;;;30.20;99.90;;;;;;4170064;28;20076;-59
2023/07/14 08:44:46;;;;;;;4.95;1.70;;;30.30;99.90;;;;;;4168867;28;20056;-59
2023/07/14 08:47:31;;;;;;;5.55;1.83;;;29.40;99.90;;;;;;4168082;28;20403;-59
2023/07/14 08:49:57;;;;;;;6.68;2.33;;;29.30;99.90;;;;;;4168144;28;20056;-59
2023/07/14 08:52:21;;;;;;;5.70;1.58;;;29.60;99.90;;;;;;4167003;28;20052;-59
2023/07/14 08:55:09;;;;;;;4.57;2.17;;;30.00;99.90;;;;;;4169786;28;20069;-59
2023/07/14 08:57:33;;;;;;;4.40;1.40;;;30.40;99.90;;;;;;4167881;28;20232;-59
2023/07/14 08:59:58;;;;;;;8.95;1.10;;;30.60;99.90;;;;;;4167707;28;20056;-60
2023/07/14 09:02:38;;;;;;;12.60;1.83;;;30.60;99.90;;;;;;4168060;28;20371;-59
2023/07/14 09:05:03;;;;;;;6.10;1.80;;;30.60;99.90;;;;;;4167894;28;20052;-59
2023/07/14 09:07:23;;;;;;;6.43;1.95;;;30.50;99.90;;;;;;4170037;28;20064;-59
2023/07/14 09:09:43;;;;;;;3.97;1.40;;;29.80;99.90;;;;;;4168765;28;20068;-59
2023/07/14 09:12:28;;;;;;;6.95;1.85;;;29.80;99.90;;;;;;4169451;28;20398;-59
2023/07/14 09:14:54;;;;;;;6.07;1.90;;;30.10;99.90;;;;;;4169005;28;20236;-59
2023/07/14 09:17:56;;;;;;;5.28;0.90;;;30.10;99.90;;;;;;4168750;28;20371;-59
2023/07/14 09:20:22;;;;;;;3.23;1.00;;;30.70;99.90;;;;;;4166798;28;20311;-60
2023/07/14 09:23:08;;;;;;;5.68;1.25;;;30.90;99.90;;;;;;4166337;28;20107;-59
2023/07/14 09:25:29;;;;;;;9.20;1.67;;;31.00;99.40;;;;;;4167089;28;20094;-59
2023/07/14 09:27:51;;;;;;;5.63;1.42;;;30.70;98.50;;;;;;4166901;28;20233;-59
2023/07/14 09:30:27;;;;;;;2.90;1.10;;;30.70;99.10;;;;;;4162218;28;20275;-59
2023/07/14 09:32:52;;;;;;;5.55;1.10;;;30.60;99.30;;;;;;4163444;28;20280;-59
2023/07/14 09:35:18;;;;;;;6.50;1.00;;;30.80;98.50;;;;;;4167502;28;20244;-59
2023/07/14 09:37:57;;;;;;;2.38;0.95;;;30.90;98.10;;;;;;4168517;28;20056;-59
2023/07/14 09:40:30;;;;;;;5.07;1.52;;;30.80;98.80;;;;;;4168784;28;20410;-59
2023/07/14 09:42:55;;;;;;;6.18;1.00;;;30.80;98.20;;;;;;4169127;28;20064;-59
2023/07/14 09:45:20;;;;;;;5.95;1.80;;;31.10;97.50;;;;;;4166776;28;20077;-59
2023/07/14 09:47:42;;;;;;;5.38;1.63;;;31.20;98.70;;;;;;4167503;28;20060;-59
2023/07/14 09:50:02;;;;;;;3.53;1.10;;;31.30;98.30;;;;;;4169263;28;20052;-59
2023/07/14 09:52:25;;;;;;;3.70;1.23;;;31.10;98.00;;;;;;4170092;28;20363;-59
2023/07/14 09:55:00;;;;;;;1.77;0.98;;;31.20;98.60;;;;;;4169474;28;20240;-59
2023/07/14 09:57:28;;;;;;;2.55;0.95;;;31.10;98.10;;;;;;4169708;28;20084;-59
2023/07/14 10:00:11;;;;;;;6.00;1.00;;;31.00;97.20;;;;;;4163233;28;20048;-59
2023/07/14 10:02:32;;;;;;;;;;;30.80;97.80;;;;;;4166198;28;20135;-59
2023/07/14 10:04:58;;;;;;;5.00;1.13;;;31.40;98.50;;;;;;4165120;28;19989;-58
2023/07/14 10:07:31;;;;;;;5.45;1.10;;;31.70;96.00;;;;;;4166125;28;20376;-59
2023/07/14 10:09:59;;;;;;;2.67;0.80;;;31.50;96.20;;;;;;4166143;28;20061;-59
2023/07/14 10:12:20;;;;;;;1.70;0.90;;;31.50;95.10;;;;;;4168873;28;20372;-59
2023/07/14 10:14:45;;;;;;;3.95;1.20;;;31.50;95.40;;;;;;4166833;28;20241;-59
2023/07/14 10:17:21;;;;;;;5.63;1.25;;;31.60;95.10;;;;;;4167791;28;20080;-59
2023/07/14 10:19:45;;;;;;;3.92;1.00;;;31.40;95.10;;;;;;4167024;28;20107;-59
2023/07/14 10:22:13;;;;;;;6.65;0.90;;;31.80;95.40;;;;;;4167599;28;20057;-59
2023/07/14 10:24:35;;;;;;;1.35;0.80;;;31.70;93.90;;;;;;4166950;28;20427;-59
2023/07/14 10:27:01;;;;;;;;;;;31.70;92.30;;;;;;4166909;28;20044;-59
2023/07/14 10:29:23;;;;;;;3.65;0.60;;;31.90;91.40;;;;;;4166612;28;19928;-59
2023/07/14 10:31:51;;;;;;;;;;;32.30;91.80;;;;;;4166810;28;20049;-59
2023/07/14 10:34:48;;;;;;;2.47;0.60;;;32.80;92.60;;;;;;4162622;28;20024;-59
2023/07/14 10:37:30;;;;;;;1.88;0.80;;;32.40;91.60;;;;;;4164220;28;20053;-59
2023/07/14 10:40:17;;;;;;;2.42;0.70;;;32.60;90.70;;;;;;4171451;28;20053;-59
2023/07/14 10:43:02;;;;;;;3.67;0.63;;;33.30;90.30;;;;;;4167846;28;20279;-60
2023/07/14 10:45:23;;;;;;;2.90;0.73;;;33.20;91.30;;;;;;4168246;28;20045;-59
2023/07/14 10:47:51;;;;;;;4.40;0.60;;;33.90;90.10;;;;;;4167869;28;20092;-59
2023/07/14 10:50:22;;;;;;;2.85;0.75;;;33.90;90.60;;;;;;4166411;28;20103;-59
2023/07/14 10:52:46;;;;;;;1.13;0.60;;;34.10;90.80;;;;;;4168048;28;20375;-59
2023/07/14 10:55:17;;;;;;;2.47;0.60;;;34.20;91.20;;;;;;4167451;28;20067;-59
2023/07/14 10:58:16;;;;;;;5.18;1.40;;;34.20;90.30;;;;;;4168957;28;20045;-59
2023/07/14 11:00:40;;;;;;;2.55;0.60;;;34.00;91.50;;;;;;4170237;28;20045;-59
2023/07/14 11:03:41;;;;;;;1.17;0.60;;;33.00;90.60;;;;;;4170278;28;20056;-58
2023/07/14 11:06:13;;;;;;;5.10;1.08;;;32.30;91.90;;;;;;4142249;28;20136;-59
2023/07/14 11:08:33;;;;;;;3.65;1.17;;;32.20;92.80;;;;;;4164356;28;20088;-59
2023/07/14 11:10:57;;;;;;;2.60;0.63;;;32.20;91.60;;;;;;4160519;28;20129;-60
2023/07/14 11:13:20;;;;;;;1.38;0.70;;;33.20;93.50;;;;;;4159120;28;20359;-59
2023/07/14 11:15:52;;;;;;;1.25;0.70;;;34.00;91.50;;;;;;4161338;28;20060;-59
2023/07/14 11:18:20;;;;;;;3.25;0.70;;;33.30;90.60;;;;;;4165284;28;20048;-60
2023/07/14 11:20:45;;;;;;;3.67;0.70;;;33.00;91.40;;;;;;4165514;28;20049;-59
2023/07/14 11:23:20;;;;;;;2.03;0.70;;;33.00;90.00;;;;;;4169811;28;20048;-60
2023/07/14 11:25:47;;;;;;;3.38;0.60;;;33.40;91.40;;;;;;4169099;28;20052;-59
2023/07/14 11:28:32;;;;;;;2.55;0.60;;;33.00;88.30;;;;;;4168305;28;20092;-59
2023/07/14 11:30:56;;;;;;;1.95;0.60;;;32.50;90.50;;;;;;4165293;28;20036;-59
2023/07/14 11:33:31;;;;;;;0.98;0.60;;;32.60;89.80;;;;;;4165738;28;20111;-60
2023/07/14 11:36:36;;;;;;;3.75;0.63;;;32.60;89.80;;;;;;4164768;28;20181;-60
2023/07/14 11:39:07;;;;;;;3.92;0.60;;;33.40;88.20;;;;;;4124439;28;20299;-58
2023/07/14 11:41:28;;;;;;;1.02;0.60;;;33.20;88.90;;;;;;4127554;28;20407;-57
2023/07/14 11:43:49;;;;;;;1.38;1.25;;;33.40;87.30;;;;;;4117712;28;20114;-58
2023/07/14 11:46:15;;;;;;;2.53;0.63;;;33.10;86.40;;;;;;4126781;28;20050;-58
2023/07/14 11:48:38;;;;;;;0.70;0.60;;;33.20;87.60;;;;;;4120839;28;20143;-58
2023/07/14 11:51:11;;;;;;;2.55;0.60;;;32.90;88.40;;;;;;4122137;28;20085;-58
2023/07/14 11:53:33;;;;;;;2.08;0.60;;;33.20;87.60;;;;;;4126751;28;20049;-58
2023/07/14 11:56:18;;;;;;;2.50;0.82;;;33.40;86.80;;;;;;4120986;28;20110;-58
2023/07/14 11:58:39;;;;;;;1.25;0.90;;;33.10;85.60;;;;;;4126007;28;20073;-58
2023/07/14 12:01:13;;;;;;;2.58;0.80;;;33.40;87.90;;;;;;4128962;28;20363;-58
2023/07/14 12:03:39;;;;;;;5.53;0.90;;;33.70;85.70;;;;;;4121433;28;20502;-57
2023/07/14 12:06:20;;;;;;;1.20;0.52;;;34.00;85.40;;;;;;4124144;28;20125;-58
2023/07/14 12:08:42;;;;;;;1.02;0.60;;;34.40;87.40;;;;;;4123441;28;20105;-58
2023/07/14 12:11:03;;;;;;;1.85;0.60;;;34.50;85.40;;;;;;4163830;28;20368;-58
2023/07/14 12:13:32;;;;;;;2.80;0.80;;;34.40;85.00;;;;;;4162744;28;20367;-58
2023/07/14 12:15:55;;;;;;;4.72;0.50;;;34.50;85.20;;;;;;4164086;28;20045;-58
2023/07/14 12:18:35;;;;;;;1.80;0.60;;;34.50;84.70;;;;;;4161928;28;20045;-58
2023/07/14 12:21:14;;;;;;;1.33;0.63;;;34.70;83.00;;;;;;4167886;28;20084;-58
2023/07/14 12:23:35;;;;;;;3.08;0.50;;;34.50;82.80;;;;;;4163785;28;20053;-58
2023/07/14 12:26:14;;;;;;;2.53;0.60;;;34.30;84.60;;;;;;4164053;28;20057;-57
2023/07/14 12:28:37;;;;;;;1.65;0.80;;;34.60;82.10;;;;;;4169739;28;20273;-57
2023/07/14 12:31:01;;;;;;;5.03;1.65;;;34.70;85.80;;;;;;4168535;28;20049;-57
2023/07/14 12:33:24;;;;;;;2.03;0.98;;;35.20;78.60;;;;;;4167914;28;20107;-57
2023/07/14 12:35:44;;;;;;;1.17;0.75;;;34.80;74.70;;;;;;4164316;28;20041;-58
2023/07/14 12:38:17;;;;;;;2.00;0.50;;;34.80;81.90;;;;;;4165331;28;20053;-58
2023/07/14 12:40:38;;;;;;;3.97;0.93;;;35.20;73.70;;;;;;4163799;28;20088;-57
2023/07/14 12:43:07;;;;;;;2.97;1.17;;;35.20;73.90;;;;;;4164638;28;20084;-57